sensor_id;sensor_type;location;lat;lon;timestamp;P1;durP1;ratioP1;P2;durP2;ratioP2
62790;SDS011;48830;53.426;10.300;2023-04-25T00:02:11;8.80;;;5.05;;
62790;SDS011;48830;53.426;10.300;2023-04-25T00:04:36;8.67;;;4.73;;
62790;SDS011;48830;53.426;10.300;2023-04-25T00:07:03;10.65;;;5.60;;
62790;SDS011;48830;53.426;10.300;2023-04-25T00:09:28;7.40;;;4.47;;
62790;SDS011;48830;53.426;10.300;2023-04-25T00:11:54;6.50;;;4.32;;
62790;SDS011;48830;53.426;10.300;2023-04-25T00:14:20;9.37;;;4.83;;
62790;SDS011;48830;53.426;10.300;2023-04-25T00:16:45;9.18;;;4.60;;
62790;SDS011;48830;53.426;10.300;2023-04-25T00:19:10;7.15;;;4.18;;
62790;SDS011;48830;53.426;10.300;2023-04-25T00:21:36;8.60;;;4.60;;
62790;SDS011;48830;53.426;10.300;2023-04-25T00:24:05;8.38;;;4.38;;
62790;SDS011;48830;53.426;10.300;2023-04-25T00:26:33;10.00;;;4.47;;
62790;SDS011;48830;53.426;10.300;2023-04-25T00:29:00;9.77;;;4.03;;
62790;SDS011;48830;53.426;10.300;2023-04-25T00:31:25;8.40;;;4.30;;
62790;SDS011;48830;53.426;10.300;2023-04-25T00:33:51;8.90;;;4.28;;
62790;SDS011;48830;53.426;10.300;2023-04-25T00:36:16;6.87;;;4.23;;
62790;SDS011;48830;53.426;10.300;2023-04-25T00:38:43;8.88;;;4.35;;
62790;SDS011;48830;53.426;10.300;2023-04-25T00:41:08;11.23;;;4.93;;
62790;SDS011;48830;53.426;10.300;2023-04-25T00:43:34;9.60;;;4.75;;
62790;SDS011;48830;53.426;10.300;2023-04-25T00:46:01;8.20;;;4.20;;
62790;SDS011;48830;53.426;10.300;2023-04-25T00:48:27;7.73;;;4.20;;
62790;SDS011;48830;53.426;10.300;2023-04-25T00:50:53;8.93;;;3.80;;
62790;SDS011;48830;53.426;10.300;2023-04-25T00:53:20;7.18;;;4.32;;
62790;SDS011;48830;53.426;10.300;2023-04-25T00:55:47;6.50;;;3.40;;
62790;SDS011;48830;53.426;10.300;2023-04-25T00:58:13;7.20;;;3.45;;
62790;SDS011;48830;53.426;10.300;2023-04-25T01:00:39;6.72;;;3.38;;
62790;SDS011;48830;53.426;10.300;2023-04-25T01:03:06;14.57;;;3.70;;
62790;SDS011;48830;53.426;10.300;2023-04-25T01:05:31;6.83;;;3.43;;
62790;SDS011;48830;53.426;10.300;2023-04-25T01:07:57;10.63;;;3.13;;
62790;SDS011;48830;53.426;10.300;2023-04-25T01:10:23;10.07;;;3.80;;
62790;SDS011;48830;53.426;10.300;2023-04-25T01:12:49;9.07;;;3.40;;
62790;SDS011;48830;53.426;10.300;2023-04-25T01:15:15;11.32;;;3.95;;
62790;SDS011;48830;53.426;10.300;2023-04-25T01:17:40;12.77;;;3.97;;
62790;SDS011;48830;53.426;10.300;2023-04-25T01:20:06;15.00;;;4.30;;
62790;SDS011;48830;53.426;10.300;2023-04-25T01:22:34;18.97;;;4.20;;
62790;SDS011;48830;53.426;10.300;2023-04-25T01:25:00;14.90;;;4.72;;
62790;SDS011;48830;53.426;10.300;2023-04-25T01:27:26;19.03;;;4.97;;
62790;SDS011;48830;53.426;10.300;2023-04-25T01:29:53;16.10;;;4.30;;
62790;SDS011;48830;53.426;10.300;2023-04-25T01:32:20;11.07;;;4.33;;
62790;SDS011;48830;53.426;10.300;2023-04-25T01:34:46;15.10;;;4.10;;
62790;SDS011;48830;53.426;10.300;2023-04-25T01:37:12;13.87;;;5.20;;
62790;SDS011;48830;53.426;10.300;2023-04-25T01:39:37;10.73;;;4.10;;
62790;SDS011;48830;53.426;10.300;2023-04-25T01:42:04;14.50;;;4.07;;
62790;SDS011;48830;53.426;10.300;2023-04-25T01:44:30;18.90;;;4.80;;
62790;SDS011;48830;53.426;10.300;2023-04-25T01:46:55;21.67;;;4.50;;
62790;SDS011;48830;53.426;10.300;2023-04-25T01:49:21;19.50;;;4.43;;
62790;SDS011;48830;53.426;10.300;2023-04-25T01:51:47;16.10;;;4.57;;
62790;SDS011;48830;53.426;10.300;2023-04-25T01:54:14;21.05;;;4.95;;
62790;SDS011;48830;53.426;10.300;2023-04-25T01:56:39;17.70;;;4.70;;
62790;SDS011;48830;53.426;10.300;2023-04-25T01:59:07;23.42;;;5.50;;
62790;SDS011;48830;53.426;10.300;2023-04-25T02:01:39;18.27;;;4.68;;
62790;SDS011;48830;53.426;10.300;2023-04-25T02:04:21;16.30;;;5.23;;
62790;SDS011;48830;53.426;10.300;2023-04-25T02:06:46;19.53;;;5.00;;
62790;SDS011;48830;53.426;10.300;2023-04-25T02:09:12;14.17;;;4.37;;
62790;SDS011;48830;53.426;10.300;2023-04-25T02:11:43;17.97;;;4.97;;
62790;SDS011;48830;53.426;10.300;2023-04-25T02:14:34;19.63;;;4.57;;
62790;SDS011;48830;53.426;10.300;2023-04-25T02:17:07;14.57;;;4.00;;
62790;SDS011;48830;53.426;10.300;2023-04-25T02:19:32;15.37;;;4.30;;
62790;SDS011;48830;53.426;10.300;2023-04-25T02:21:58;17.97;;;4.53;;
62790;SDS011;48830;53.426;10.300;2023-04-25T02:24:24;20.37;;;5.50;;
62790;SDS011;48830;53.426;10.300;2023-04-25T02:26:50;20.83;;;5.33;;
62790;SDS011;48830;53.426;10.300;2023-04-25T02:29:15;21.63;;;4.60;;
62790;SDS011;48830;53.426;10.300;2023-04-25T02:31:41;18.47;;;4.80;;
62790;SDS011;48830;53.426;10.300;2023-04-25T02:34:07;17.83;;;4.90;;
62790;SDS011;48830;53.426;10.300;2023-04-25T02:36:35;21.33;;;5.03;;
62790;SDS011;48830;53.426;10.300;2023-04-25T02:39:01;22.20;;;5.30;;
62790;SDS011;48830;53.426;10.300;2023-04-25T02:41:27;19.80;;;4.87;;
62790;SDS011;48830;53.426;10.300;2023-04-25T02:43:54;19.67;;;4.80;;
62790;SDS011;48830;53.426;10.300;2023-04-25T02:46:20;15.70;;;4.47;;
62790;SDS011;48830;53.426;10.300;2023-04-25T02:48:45;18.17;;;4.50;;
62790;SDS011;48830;53.426;10.300;2023-04-25T02:51:11;25.40;;;4.70;;
62790;SDS011;48830;53.426;10.300;2023-04-25T02:53:37;18.43;;;4.23;;
62790;SDS011;48830;53.426;10.300;2023-04-25T02:56:02;20.37;;;4.63;;
62790;SDS011;48830;53.426;10.300;2023-04-25T02:58:28;16.13;;;4.53;;
62790;SDS011;48830;53.426;10.300;2023-04-25T03:00:53;17.70;;;4.13;;
62790;SDS011;48830;53.426;10.300;2023-04-25T03:03:20;17.60;;;4.47;;
62790;SDS011;48830;53.426;10.300;2023-04-25T03:05:48;22.33;;;5.00;;
62790;SDS011;48830;53.426;10.300;2023-04-25T03:08:18;17.67;;;4.80;;
62790;SDS011;48830;53.426;10.300;2023-04-25T03:10:44;16.60;;;4.30;;
62790;SDS011;48830;53.426;10.300;2023-04-25T03:13:10;19.83;;;4.43;;
62790;SDS011;48830;53.426;10.300;2023-04-25T03:15:37;18.13;;;4.73;;
62790;SDS011;48830;53.426;10.300;2023-04-25T03:18:03;21.30;;;4.37;;
62790;SDS011;48830;53.426;10.300;2023-04-25T03:20:29;15.47;;;4.60;;
62790;SDS011;48830;53.426;10.300;2023-04-25T03:22:54;20.93;;;5.90;;
62790;SDS011;48830;53.426;10.300;2023-04-25T03:25:21;15.30;;;4.73;;
62790;SDS011;48830;53.426;10.300;2023-04-25T03:27:47;18.67;;;4.73;;
62790;SDS011;48830;53.426;10.300;2023-04-25T03:30:12;19.07;;;4.40;;
62790;SDS011;48830;53.426;10.300;2023-04-25T03:32:40;18.63;;;4.30;;
62790;SDS011;48830;53.426;10.300;2023-04-25T03:35:06;15.70;;;4.53;;
62790;SDS011;48830;53.426;10.300;2023-04-25T03:37:31;15.67;;;4.50;;
62790;SDS011;48830;53.426;10.300;2023-04-25T03:39:57;11.37;;;3.70;;
62790;SDS011;48830;53.426;10.300;2023-04-25T03:42:28;18.50;;;3.70;;
62790;SDS011;48830;53.426;10.300;2023-04-25T03:44:53;18.17;;;4.00;;
62790;SDS011;48830;53.426;10.300;2023-04-25T03:47:19;18.33;;;4.27;;
62790;SDS011;48830;53.426;10.300;2023-04-25T03:49:45;16.57;;;3.63;;
62790;SDS011;48830;53.426;10.300;2023-04-25T03:52:11;16.43;;;4.40;;
62790;SDS011;48830;53.426;10.300;2023-04-25T03:54:39;19.20;;;4.40;;
62790;SDS011;48830;53.426;10.300;2023-04-25T03:57:10;18.23;;;4.20;;
62790;SDS011;48830;53.426;10.300;2023-04-25T03:59:38;15.40;;;4.57;;
62790;SDS011;48830;53.426;10.300;2023-04-25T04:02:04;19.20;;;4.57;;
62790;SDS011;48830;53.426;10.300;2023-04-25T04:04:31;19.20;;;4.63;;
62790;SDS011;48830;53.426;10.300;2023-04-25T04:06:57;16.87;;;3.77;;
62790;SDS011;48830;53.426;10.300;2023-04-25T04:09:25;15.50;;;4.17;;
62790;SDS011;48830;53.426;10.300;2023-04-25T04:11:53;22.70;;;4.57;;
62790;SDS011;48830;53.426;10.300;2023-04-25T04:14:19;14.07;;;4.03;;
62790;SDS011;48830;53.426;10.300;2023-04-25T04:16:46;12.73;;;4.13;;
62790;SDS011;48830;53.426;10.300;2023-04-25T04:19:11;16.53;;;4.07;;
62790;SDS011;48830;53.426;10.300;2023-04-25T04:21:41;15.70;;;3.80;;
62790;SDS011;48830;53.426;10.300;2023-04-25T04:24:06;15.70;;;3.73;;
62790;SDS011;48830;53.426;10.300;2023-04-25T04:26:44;13.63;;;3.40;;
62790;SDS011;48830;53.426;10.300;2023-04-25T04:29:28;13.70;;;4.27;;
62790;SDS011;48830;53.426;10.300;2023-04-25T04:31:58;21.57;;;4.90;;
62790;SDS011;48830;53.426;10.300;2023-04-25T04:34:26;13.00;;;3.97;;
62790;SDS011;48830;53.426;10.300;2023-04-25T04:36:52;19.47;;;4.10;;
62790;SDS011;48830;53.426;10.300;2023-04-25T04:39:18;15.80;;;3.70;;
62790;SDS011;48830;53.426;10.300;2023-04-25T04:41:55;18.17;;;3.57;;
62790;SDS011;48830;53.426;10.300;2023-04-25T04:44:52;17.03;;;4.30;;
62790;SDS011;48830;53.426;10.300;2023-04-25T04:47:58;13.13;;;3.70;;
62790;SDS011;48830;53.426;10.300;2023-04-25T04:50:50;21.00;;;4.07;;
62790;SDS011;48830;53.426;10.300;2023-04-25T04:53:26;17.47;;;3.80;;
62790;SDS011;48830;53.426;10.300;2023-04-25T04:55:55;15.47;;;3.93;;
62790;SDS011;48830;53.426;10.300;2023-04-25T04:58:39;18.23;;;3.90;;
62790;SDS011;48830;53.426;10.300;2023-04-25T05:01:11;20.57;;;4.10;;
62790;SDS011;48830;53.426;10.300;2023-04-25T05:03:57;15.87;;;3.43;;
62790;SDS011;48830;53.426;10.300;2023-04-25T05:06:42;20.10;;;4.57;;
62790;SDS011;48830;53.426;10.300;2023-04-25T05:09:39;13.13;;;3.70;;
62790;SDS011;48830;53.426;10.300;2023-04-25T05:12:17;18.52;;;4.25;;
62790;SDS011;48830;53.426;10.300;2023-04-25T05:15:05;16.40;;;3.87;;
62790;SDS011;48830;53.426;10.300;2023-04-25T05:17:34;16.60;;;4.57;;
62790;SDS011;48830;53.426;10.300;2023-04-25T05:20:20;17.27;;;4.20;;
62790;SDS011;48830;53.426;10.300;2023-04-25T05:23:04;12.77;;;3.33;;
62790;SDS011;48830;53.426;10.300;2023-04-25T05:25:56;15.43;;;3.83;;
62790;SDS011;48830;53.426;10.300;2023-04-25T05:28:36;15.47;;;3.73;;
62790;SDS011;48830;53.426;10.300;2023-04-25T05:31:28;12.80;;;3.43;;
62790;SDS011;48830;53.426;10.300;2023-04-25T05:34:03;15.13;;;3.57;;
62790;SDS011;48830;53.426;10.300;2023-04-25T05:36:39;12.20;;;3.77;;
62790;SDS011;48830;53.426;10.300;2023-04-25T05:39:05;12.80;;;3.67;;
62790;SDS011;48830;53.426;10.300;2023-04-25T05:41:50;14.50;;;3.73;;
62790;SDS011;48830;53.426;10.300;2023-04-25T05:44:38;14.10;;;3.50;;
62790;SDS011;48830;53.426;10.300;2023-04-25T05:47:24;18.27;;;3.90;;
62790;SDS011;48830;53.426;10.300;2023-04-25T05:50:13;14.20;;;3.77;;
62790;SDS011;48830;53.426;10.300;2023-04-25T05:52:47;13.10;;;3.40;;
62790;SDS011;48830;53.426;10.300;2023-04-25T05:55:23;18.73;;;3.80;;
62790;SDS011;48830;53.426;10.300;2023-04-25T05:57:49;15.80;;;3.67;;
62790;SDS011;48830;53.426;10.300;2023-04-25T06:00:15;13.40;;;3.40;;
62790;SDS011;48830;53.426;10.300;2023-04-25T06:02:43;14.70;;;3.97;;
62790;SDS011;48830;53.426;10.300;2023-04-25T06:05:11;18.13;;;4.03;;
62790;SDS011;48830;53.426;10.300;2023-04-25T06:07:37;15.57;;;3.70;;
62790;SDS011;48830;53.426;10.300;2023-04-25T06:10:02;11.70;;;3.53;;
62790;SDS011;48830;53.426;10.300;2023-04-25T06:12:31;18.47;;;3.80;;
62790;SDS011;48830;53.426;10.300;2023-04-25T06:14:58;12.67;;;3.93;;
62790;SDS011;48830;53.426;10.300;2023-04-25T06:17:24;12.00;;;3.77;;
62790;SDS011;48830;53.426;10.300;2023-04-25T06:19:50;11.80;;;3.27;;
62790;SDS011;48830;53.426;10.300;2023-04-25T06:22:16;12.40;;;3.00;;
62790;SDS011;48830;53.426;10.300;2023-04-25T06:24:41;13.53;;;3.27;;
62790;SDS011;48830;53.426;10.300;2023-04-25T06:27:07;11.37;;;3.60;;
62790;SDS011;48830;53.426;10.300;2023-04-25T06:29:33;14.00;;;3.87;;
62790;SDS011;48830;53.426;10.300;2023-04-25T06:31:58;11.60;;;3.43;;
62790;SDS011;48830;53.426;10.300;2023-04-25T06:34:24;14.83;;;3.67;;
62790;SDS011;48830;53.426;10.300;2023-04-25T06:36:49;18.10;;;3.27;;
62790;SDS011;48830;53.426;10.300;2023-04-25T06:39:15;15.73;;;3.60;;
62790;SDS011;48830;53.426;10.300;2023-04-25T06:41:41;13.70;;;3.63;;
62790;SDS011;48830;53.426;10.300;2023-04-25T06:44:14;13.73;;;3.47;;
62790;SDS011;48830;53.426;10.300;2023-04-25T06:46:49;15.13;;;3.63;;
62790;SDS011;48830;53.426;10.300;2023-04-25T06:49:15;12.77;;;3.37;;
62790;SDS011;48830;53.426;10.300;2023-04-25T06:51:41;12.35;;;2.80;;
62790;SDS011;48830;53.426;10.300;2023-04-25T06:54:06;16.17;;;4.00;;
62790;SDS011;48830;53.426;10.300;2023-04-25T06:56:42;11.13;;;2.93;;
62790;SDS011;48830;53.426;10.300;2023-04-25T06:59:12;14.23;;;3.63;;
62790;SDS011;48830;53.426;10.300;2023-04-25T07:01:39;13.70;;;3.13;;
62790;SDS011;48830;53.426;10.300;2023-04-25T07:04:10;13.90;;;2.97;;
62790;SDS011;48830;53.426;10.300;2023-04-25T07:06:41;10.63;;;3.33;;
62790;SDS011;48830;53.426;10.300;2023-04-25T07:09:10;11.20;;;3.57;;
62790;SDS011;48830;53.426;10.300;2023-04-25T07:11:36;12.90;;;2.83;;
62790;SDS011;48830;53.426;10.300;2023-04-25T07:14:02;17.53;;;3.50;;
62790;SDS011;48830;53.426;10.300;2023-04-25T07:16:28;15.37;;;3.10;;
62790;SDS011;48830;53.426;10.300;2023-04-25T07:18:53;12.63;;;2.95;;
62790;SDS011;48830;53.426;10.300;2023-04-25T07:21:19;12.55;;;3.38;;
62790;SDS011;48830;53.426;10.300;2023-04-25T07:23:46;10.02;;;3.00;;
62790;SDS011;48830;53.426;10.300;2023-04-25T07:26:16;12.40;;;3.55;;
62790;SDS011;48830;53.426;10.300;2023-04-25T07:29:02;11.60;;;3.15;;
62790;SDS011;48830;53.426;10.300;2023-04-25T07:31:27;12.98;;;2.80;;
62790;SDS011;48830;53.426;10.300;2023-04-25T07:33:53;11.82;;;3.33;;
62790;SDS011;48830;53.426;10.300;2023-04-25T07:36:18;7.82;;;2.85;;
62790;SDS011;48830;53.426;10.300;2023-04-25T07:38:44;11.27;;;3.08;;
62790;SDS011;48830;53.426;10.300;2023-04-25T07:41:10;11.10;;;2.97;;
62790;SDS011;48830;53.426;10.300;2023-04-25T07:43:35;12.00;;;3.00;;
62790;SDS011;48830;53.426;10.300;2023-04-25T07:46:02;13.65;;;3.20;;
62790;SDS011;48830;53.426;10.300;2023-04-25T07:48:31;12.68;;;2.75;;
62790;SDS011;48830;53.426;10.300;2023-04-25T07:50:56;13.02;;;2.92;;
62790;SDS011;48830;53.426;10.300;2023-04-25T07:53:22;13.15;;;3.03;;
62790;SDS011;48830;53.426;10.300;2023-04-25T07:55:52;11.60;;;2.60;;
62790;SDS011;48830;53.426;10.300;2023-04-25T07:58:19;13.05;;;3.35;;
62790;SDS011;48830;53.426;10.300;2023-04-25T08:00:48;12.43;;;2.78;;
62790;SDS011;48830;53.426;10.300;2023-04-25T08:03:35;6.95;;;2.50;;
62790;SDS011;48830;53.426;10.300;2023-04-25T08:06:03;7.05;;;2.50;;
62790;SDS011;48830;53.426;10.300;2023-04-25T08:08:31;11.43;;;2.83;;
62790;SDS011;48830;53.426;10.300;2023-04-25T08:10:57;12.00;;;3.15;;
62790;SDS011;48830;53.426;10.300;2023-04-25T08:13:22;12.98;;;2.63;;
62790;SDS011;48830;53.426;10.300;2023-04-25T08:15:48;7.20;;;2.65;;
62790;SDS011;48830;53.426;10.300;2023-04-25T08:18:13;11.98;;;2.83;;
62790;SDS011;48830;53.426;10.300;2023-04-25T08:20:40;10.90;;;2.72;;
62790;SDS011;48830;53.426;10.300;2023-04-25T08:23:08;12.10;;;2.90;;
62790;SDS011;48830;53.426;10.300;2023-04-25T08:25:57;8.38;;;2.45;;
62790;SDS011;48830;53.426;10.300;2023-04-25T08:28:26;8.02;;;2.42;;
62790;SDS011;48830;53.426;10.300;2023-04-25T08:30:51;9.05;;;2.53;;
62790;SDS011;48830;53.426;10.300;2023-04-25T08:33:18;8.35;;;2.67;;
62790;SDS011;48830;53.426;10.300;2023-04-25T08:35:46;8.70;;;2.20;;
62790;SDS011;48830;53.426;10.300;2023-04-25T08:38:12;9.82;;;3.05;;
62790;SDS011;48830;53.426;10.300;2023-04-25T08:40:39;10.77;;;2.97;;
62790;SDS011;48830;53.426;10.300;2023-04-25T08:43:10;9.50;;;2.40;;
62790;SDS011;48830;53.426;10.300;2023-04-25T08:45:40;9.73;;;2.70;;
62790;SDS011;48830;53.426;10.300;2023-04-25T08:48:10;9.55;;;2.35;;
62790;SDS011;48830;53.426;10.300;2023-04-25T08:50:39;8.48;;;2.30;;
62790;SDS011;48830;53.426;10.300;2023-04-25T08:53:09;11.75;;;2.28;;
62790;SDS011;48830;53.426;10.300;2023-04-25T08:55:41;9.13;;;2.28;;
62790;SDS011;48830;53.426;10.300;2023-04-25T08:58:09;11.07;;;1.98;;
62790;SDS011;48830;53.426;10.300;2023-04-25T09:00:35;9.32;;;2.15;;
62790;SDS011;48830;53.426;10.300;2023-04-25T09:03:01;11.02;;;2.58;;
62790;SDS011;48830;53.426;10.300;2023-04-25T09:05:32;8.68;;;2.28;;
62790;SDS011;48830;53.426;10.300;2023-04-25T09:07:57;9.85;;;2.08;;
62790;SDS011;48830;53.426;10.300;2023-04-25T09:10:23;6.57;;;1.83;;
62790;SDS011;48830;53.426;10.300;2023-04-25T09:13:01;7.43;;;2.15;;
62790;SDS011;48830;53.426;10.300;2023-04-25T09:15:54;7.55;;;2.38;;
62790;SDS011;48830;53.426;10.300;2023-04-25T09:18:34;5.10;;;1.83;;
62790;SDS011;48830;53.426;10.300;2023-04-25T09:21:08;8.13;;;2.17;;
62790;SDS011;48830;53.426;10.300;2023-04-25T09:26:19;7.68;;;2.00;;
62790;SDS011;48830;53.426;10.300;2023-04-25T09:28:45;9.05;;;2.10;;
62790;SDS011;48830;53.426;10.300;2023-04-25T09:31:22;7.65;;;1.95;;
62790;SDS011;48830;53.426;10.300;2023-04-25T09:33:50;5.50;;;1.57;;
62790;SDS011;48830;53.426;10.300;2023-04-25T09:36:25;6.28;;;1.40;;
62790;SDS011;48830;53.426;10.300;2023-04-25T09:39:00;5.13;;;1.43;;
62790;SDS011;48830;53.426;10.300;2023-04-25T09:41:28;5.60;;;1.67;;
62790;SDS011;48830;53.426;10.300;2023-04-25T09:43:57;8.03;;;1.63;;
62790;SDS011;48830;53.426;10.300;2023-04-25T09:46:33;4.33;;;1.43;;
62790;SDS011;48830;53.426;10.300;2023-04-25T09:49:06;5.30;;;1.50;;
62790;SDS011;48830;53.426;10.300;2023-04-25T09:51:39;3.43;;;1.30;;
62790;SDS011;48830;53.426;10.300;2023-04-25T09:54:06;5.50;;;1.83;;
62790;SDS011;48830;53.426;10.300;2023-04-25T09:56:38;5.10;;;1.77;;
62790;SDS011;48830;53.426;10.300;2023-04-25T09:59:06;6.95;;;1.90;;
62790;SDS011;48830;53.426;10.300;2023-04-25T10:01:35;6.72;;;1.80;;
62790;SDS011;48830;53.426;10.300;2023-04-25T10:04:10;5.10;;;1.75;;
62790;SDS011;48830;53.426;10.300;2023-04-25T10:06:45;6.55;;;1.80;;
62790;SDS011;48830;53.426;10.300;2023-04-25T10:09:15;9.38;;;2.00;;
62790;SDS011;48830;53.426;10.300;2023-04-25T10:11:44;6.90;;;1.80;;
62790;SDS011;48830;53.426;10.300;2023-04-25T10:14:12;7.55;;;1.98;;
62790;SDS011;48830;53.426;10.300;2023-04-25T10:16:38;2.85;;;1.35;;
62790;SDS011;48830;53.426;10.300;2023-04-25T10:19:06;6.53;;;1.65;;
62790;SDS011;48830;53.426;10.300;2023-04-25T10:21:32;7.68;;;1.60;;
62790;SDS011;48830;53.426;10.300;2023-04-25T10:23:59;9.77;;;1.77;;
62790;SDS011;48830;53.426;10.300;2023-04-25T10:26:26;8.60;;;1.80;;
62790;SDS011;48830;53.426;10.300;2023-04-25T10:28:55;8.13;;;2.30;;
62790;SDS011;48830;53.426;10.300;2023-04-25T10:31:22;5.22;;;1.85;;
62790;SDS011;48830;53.426;10.300;2023-04-25T10:33:48;4.20;;;1.50;;
62790;SDS011;48830;53.426;10.300;2023-04-25T10:36:20;8.82;;;1.70;;
62790;SDS011;48830;53.426;10.300;2023-04-25T10:38:48;10.60;;;2.00;;
62790;SDS011;48830;53.426;10.300;2023-04-25T10:41:17;7.53;;;1.80;;
62790;SDS011;48830;53.426;10.300;2023-04-25T10:43:47;10.80;;;2.10;;
62790;SDS011;48830;53.426;10.300;2023-04-25T10:49:00;7.80;;;1.80;;
62790;SDS011;48830;53.426;10.300;2023-04-25T10:51:27;7.95;;;2.30;;
62790;SDS011;48830;53.426;10.300;2023-04-25T10:59:11;12.60;;;2.65;;
62790;SDS011;48830;53.426;10.300;2023-04-25T11:04:23;5.35;;;1.85;;
62790;SDS011;48830;53.426;10.300;2023-04-25T11:09:35;7.25;;;1.77;;
62790;SDS011;48830;53.426;10.300;2023-04-25T11:12:03;7.03;;;1.90;;
62790;SDS011;48830;53.426;10.300;2023-04-25T11:14:29;4.78;;;1.50;;
62790;SDS011;48830;53.426;10.300;2023-04-25T11:16:56;2.78;;;1.25;;
62790;SDS011;48830;53.426;10.300;2023-04-25T11:19:23;6.20;;;1.63;;
62790;SDS011;48830;53.426;10.300;2023-04-25T11:21:49;4.57;;;1.48;;
62790;SDS011;48830;53.426;10.300;2023-04-25T11:24:16;6.03;;;1.92;;
62790;SDS011;48830;53.426;10.300;2023-04-25T11:26:42;8.88;;;2.10;;
62790;SDS011;48830;53.426;10.300;2023-04-25T11:29:11;5.75;;;1.90;;
62790;SDS011;48830;53.426;10.300;2023-04-25T11:31:37;8.93;;;1.80;;
62790;SDS011;48830;53.426;10.300;2023-04-25T11:34:02;6.45;;;1.80;;
62790;SDS011;48830;53.426;10.300;2023-04-25T11:36:27;7.18;;;1.88;;
62790;SDS011;48830;53.426;10.300;2023-04-25T11:38:53;6.03;;;2.00;;
62790;SDS011;48830;53.426;10.300;2023-04-25T11:41:19;5.63;;;2.00;;
62790;SDS011;48830;53.426;10.300;2023-04-25T11:43:45;7.15;;;1.73;;
62790;SDS011;48830;53.426;10.300;2023-04-25T11:46:10;7.78;;;1.80;;
62790;SDS011;48830;53.426;10.300;2023-04-25T11:48:37;8.10;;;1.70;;
62790;SDS011;48830;53.426;10.300;2023-04-25T11:51:06;7.80;;;1.83;;
62790;SDS011;48830;53.426;10.300;2023-04-25T11:53:32;7.00;;;1.50;;
62790;SDS011;48830;53.426;10.300;2023-04-25T11:55:57;5.43;;;1.90;;
62790;SDS011;48830;53.426;10.300;2023-04-25T11:58:23;7.20;;;2.20;;
62790;SDS011;48830;53.426;10.300;2023-04-25T12:00:48;9.25;;;1.92;;
62790;SDS011;48830;53.426;10.300;2023-04-25T12:03:14;6.53;;;2.00;;
62790;SDS011;48830;53.426;10.300;2023-04-25T12:05:39;3.67;;;1.48;;
62790;SDS011;48830;53.426;10.300;2023-04-25T12:08:14;5.63;;;1.63;;
62790;SDS011;48830;53.426;10.300;2023-04-25T12:10:41;3.92;;;1.70;;
62790;SDS011;48830;53.426;10.300;2023-04-25T12:13:21;5.20;;;1.20;;
62790;SDS011;48830;53.426;10.300;2023-04-25T12:15:48;5.47;;;1.38;;
62790;SDS011;48830;53.426;10.300;2023-04-25T12:18:14;3.23;;;1.10;;
62790;SDS011;48830;53.426;10.300;2023-04-25T12:20:39;2.35;;;1.08;;
62790;SDS011;48830;53.426;10.300;2023-04-25T12:23:06;3.67;;;1.17;;
62790;SDS011;48830;53.426;10.300;2023-04-25T12:25:43;2.75;;;1.23;;
62790;SDS011;48830;53.426;10.300;2023-04-25T12:28:14;4.05;;;1.30;;
62790;SDS011;48830;53.426;10.300;2023-04-25T12:30:58;4.75;;;1.45;;
62790;SDS011;48830;53.426;10.300;2023-04-25T12:33:25;3.63;;;1.30;;
62790;SDS011;48830;53.426;10.300;2023-04-25T12:35:52;4.35;;;1.38;;
62790;SDS011;48830;53.426;10.300;2023-04-25T12:38:24;6.32;;;1.60;;
62790;SDS011;48830;53.426;10.300;2023-04-25T12:40:51;5.60;;;1.67;;
62790;SDS011;48830;53.426;10.300;2023-04-25T12:43:17;8.05;;;1.55;;
62790;SDS011;48830;53.426;10.300;2023-04-25T12:45:53;5.88;;;1.38;;
62790;SDS011;48830;53.426;10.300;2023-04-25T12:48:19;5.85;;;1.73;;
62790;SDS011;48830;53.426;10.300;2023-04-25T12:50:46;7.32;;;1.65;;
62790;SDS011;48830;53.426;10.300;2023-04-25T12:53:19;4.85;;;1.42;;
62790;SDS011;48830;53.426;10.300;2023-04-25T12:55:46;4.97;;;1.67;;
62790;SDS011;48830;53.426;10.300;2023-04-25T12:58:15;6.78;;;1.80;;
62790;SDS011;48830;53.426;10.300;2023-04-25T13:00:42;7.60;;;1.30;;
62790;SDS011;48830;53.426;10.300;2023-04-25T13:03:08;4.28;;;1.67;;
62790;SDS011;48830;53.426;10.300;2023-04-25T13:05:34;8.75;;;1.70;;
62790;SDS011;48830;53.426;10.300;2023-04-25T13:08:00;7.60;;;2.17;;
62790;SDS011;48830;53.426;10.300;2023-04-25T13:10:26;6.32;;;2.25;;
62790;SDS011;48830;53.426;10.300;2023-04-25T13:12:51;4.53;;;1.58;;
62790;SDS011;48830;53.426;10.300;2023-04-25T13:15:17;7.47;;;1.90;;
62790;SDS011;48830;53.426;10.300;2023-04-25T13:17:42;6.65;;;1.70;;
62790;SDS011;48830;53.426;10.300;2023-04-25T13:20:08;5.40;;;1.60;;
62790;SDS011;48830;53.426;10.300;2023-04-25T13:22:37;5.45;;;1.80;;
62790;SDS011;48830;53.426;10.300;2023-04-25T13:25:04;6.57;;;1.67;;
62790;SDS011;48830;53.426;10.300;2023-04-25T13:27:31;7.13;;;2.08;;
62790;SDS011;48830;53.426;10.300;2023-04-25T13:30:01;4.50;;;1.63;;
62790;SDS011;48830;53.426;10.300;2023-04-25T13:32:32;6.03;;;1.80;;
62790;SDS011;48830;53.426;10.300;2023-04-25T13:34:58;7.20;;;1.83;;
62790;SDS011;48830;53.426;10.300;2023-04-25T13:37:24;6.13;;;1.85;;
62790;SDS011;48830;53.426;10.300;2023-04-25T13:39:50;5.70;;;1.90;;
62790;SDS011;48830;53.426;10.300;2023-04-25T13:42:15;6.43;;;1.80;;
62790;SDS011;48830;53.426;10.300;2023-04-25T13:44:41;7.55;;;1.80;;
62790;SDS011;48830;53.426;10.300;2023-04-25T13:47:06;8.02;;;2.63;;
62790;SDS011;48830;53.426;10.300;2023-04-25T13:49:32;11.80;;;2.58;;
62790;SDS011;48830;53.426;10.300;2023-04-25T13:51:58;6.17;;;1.90;;
62790;SDS011;48830;53.426;10.300;2023-04-25T13:54:23;6.65;;;2.35;;
62790;SDS011;48830;53.426;10.300;2023-04-25T13:56:49;4.82;;;1.60;;
62790;SDS011;48830;53.426;10.300;2023-04-25T13:59:14;5.85;;;1.75;;
62790;SDS011;48830;53.426;10.300;2023-04-25T14:01:39;6.97;;;1.50;;
62790;SDS011;48830;53.426;10.300;2023-04-25T14:04:05;5.13;;;1.50;;
62790;SDS011;48830;53.426;10.300;2023-04-25T14:06:31;5.28;;;1.83;;
62790;SDS011;48830;53.426;10.300;2023-04-25T14:08:57;6.45;;;1.70;;
62790;SDS011;48830;53.426;10.300;2023-04-25T14:11:22;7.47;;;1.80;;
62790;SDS011;48830;53.426;10.300;2023-04-25T14:13:48;6.22;;;1.98;;
62790;SDS011;48830;53.426;10.300;2023-04-25T14:16:16;6.22;;;1.90;;
62790;SDS011;48830;53.426;10.300;2023-04-25T14:18:41;7.65;;;2.35;;
62790;SDS011;48830;53.426;10.300;2023-04-25T14:21:07;6.95;;;1.70;;
62790;SDS011;48830;53.426;10.300;2023-04-25T14:23:33;4.25;;;1.80;;
62790;SDS011;48830;53.426;10.300;2023-04-25T14:25:58;3.40;;;1.63;;
62790;SDS011;48830;53.426;10.300;2023-04-25T14:28:23;8.98;;;1.90;;
62790;SDS011;48830;53.426;10.300;2023-04-25T14:30:49;4.77;;;1.73;;
62790;SDS011;48830;53.426;10.300;2023-04-25T14:33:14;4.50;;;1.60;;
62790;SDS011;48830;53.426;10.300;2023-04-25T14:35:40;6.00;;;1.70;;
62790;SDS011;48830;53.426;10.300;2023-04-25T14:38:06;5.17;;;1.60;;
62790;SDS011;48830;53.426;10.300;2023-04-25T14:40:32;7.20;;;2.78;;
62790;SDS011;48830;53.426;10.300;2023-04-25T14:42:58;5.03;;;1.95;;
62790;SDS011;48830;53.426;10.300;2023-04-25T14:45:23;10.02;;;1.90;;
62790;SDS011;48830;53.426;10.300;2023-04-25T14:47:49;12.95;;;2.10;;
62790;SDS011;48830;53.426;10.300;2023-04-25T14:50:15;7.60;;;1.90;;
62790;SDS011;48830;53.426;10.300;2023-04-25T14:52:40;5.82;;;1.65;;
62790;SDS011;48830;53.426;10.300;2023-04-25T14:55:06;10.85;;;1.77;;